sensor_id;sensor_type;location;lat;lon;timestamp;temperature;humidity
18880;DHT22;9572;52.378;13.404;2024-01-15T00:02:09;2.50;99.90
18880;DHT22;9572;52.378;13.404;2024-01-15T00:04:37;2.50;99.90
18880;DHT22;9572;52.378;13.404;2024-01-15T00:07:05;2.40;99.90
18880;DHT22;9572;52.378;13.404;2024-01-15T00:09:32;2.30;99.90
18880;DHT22;9572;52.378;13.404;2024-01-15T00:12:00;2.30;99.90
18880;DHT22;9572;52.378;13.404;2024-01-15T00:14:27;2.30;99.90
18880;DHT22;9572;52.378;13.404;2024-01-15T00:16:54;2.20;99.90
18880;DHT22;9572;52.378;13.404;2024-01-15T00:19:21;2.20;99.90
18880;DHT22;9572;52.378;13.404;2024-01-15T00:21:49;2.20;99.90
18880;DHT22;9572;52.378;13.404;2024-01-15T00:24:17;2.30;99.90
18880;DHT22;9572;52.378;13.404;2024-01-15T00:26:45;2.20;99.90
18880;DHT22;9572;52.378;13.404;2024-01-15T00:29:11;2.20;99.90
18880;DHT22;9572;52.378;13.404;2024-01-15T00:31:38;2.20;99.90
18880;DHT22;9572;52.378;13.404;2024-01-15T00:34:05;2.20;99.90
18880;DHT22;9572;52.378;13.404;2024-01-15T00:36:32;2.20;99.90
18880;DHT22;9572;52.378;13.404;2024-01-15T00:38:59;2.20;99.90
18880;DHT22;9572;52.378;13.404;2024-01-15T00:41:27;2.20;99.90
18880;DHT22;9572;52.378;13.404;2024-01-15T00:43:54;2.20;99.90
18880;DHT22;9572;52.378;13.404;2024-01-15T00:46:21;2.20;99.90
18880;DHT22;9572;52.378;13.404;2024-01-15T00:48:48;2.10;99.90
18880;DHT22;9572;52.378;13.404;2024-01-15T00:51:14;2.20;99.90
18880;DHT22;9572;52.378;13.404;2024-01-15T00:53:41;2.20;99.90
18880;DHT22;9572;52.378;13.404;2024-01-15T00:56:08;2.20;99.90
18880;DHT22;9572;52.378;13.404;2024-01-15T00:58:36;2.20;99.90
18880;DHT22;9572;52.378;13.404;2024-01-15T01:01:03;2.30;99.90
18880;DHT22;9572;52.378;13.404;2024-01-15T01:03:30;2.30;99.90
18880;DHT22;9572;52.378;13.404;2024-01-15T01:05:57;2.30;99.90
18880;DHT22;9572;52.378;13.404;2024-01-15T01:08:24;2.30;99.90
18880;DHT22;9572;52.378;13.404;2024-01-15T01:10:51;2.30;99.90
18880;DHT22;9572;52.378;13.404;2024-01-15T01:13:18;2.30;99.90
18880;DHT22;9572;52.378;13.404;2024-01-15T01:15:46;2.30;99.90
18880;DHT22;9572;52.378;13.404;2024-01-15T01:18:13;2.30;99.90
18880;DHT22;9572;52.378;13.404;2024-01-15T01:20:39;2.30;99.90
18880;DHT22;9572;52.378;13.404;2024-01-15T01:23:06;2.30;99.90
18880;DHT22;9572;52.378;13.404;2024-01-15T01:25:33;2.30;99.90
18880;DHT22;9572;52.378;13.404;2024-01-15T01:28:00;2.30;99.90
18880;DHT22;9572;52.378;13.404;2024-01-15T01:30:27;2.30;99.90
18880;DHT22;9572;52.378;13.404;2024-01-15T01:32:55;2.30;99.90
18880;DHT22;9572;52.378;13.404;2024-01-15T01:35:22;2.30;99.90
18880;DHT22;9572;52.378;13.404;2024-01-15T01:37:49;2.20;99.90
18880;DHT22;9572;52.378;13.404;2024-01-15T01:40:16;2.10;99.90
18880;DHT22;9572;52.378;13.404;2024-01-15T01:42:43;2.10;99.90
18880;DHT22;9572;52.378;13.404;2024-01-15T01:45:11;2.00;99.90
18880;DHT22;9572;52.378;13.404;2024-01-15T01:47:38;2.00;99.90
18880;DHT22;9572;52.378;13.404;2024-01-15T01:50:07;1.90;99.90
18880;DHT22;9572;52.378;13.404;2024-01-15T01:52:34;2.00;99.90
18880;DHT22;9572;52.378;13.404;2024-01-15T01:55:02;1.90;99.90
18880;DHT22;9572;52.378;13.404;2024-01-15T01:57:30;1.90;99.90
18880;DHT22;9572;52.378;13.404;2024-01-15T01:59:58;1.90;99.90
18880;DHT22;9572;52.378;13.404;2024-01-15T02:02:25;1.90;99.90
18880;DHT22;9572;52.378;13.404;2024-01-15T02:04:52;1.90;99.90
18880;DHT22;9572;52.378;13.404;2024-01-15T02:07:21;1.90;99.90
18880;DHT22;9572;52.378;13.404;2024-01-15T02:09:48;1.90;99.90
18880;DHT22;9572;52.378;13.404;2024-01-15T02:12:16;2.00;99.90
18880;DHT22;9572;52.378;13.404;2024-01-15T02:14:43;2.00;99.90
18880;DHT22;9572;52.378;13.404;2024-01-15T02:17:10;2.00;99.90
18880;DHT22;9572;52.378;13.404;2024-01-15T02:19:36;2.00;99.90
18880;DHT22;9572;52.378;13.404;2024-01-15T02:22:05;2.00;99.90
18880;DHT22;9572;52.378;13.404;2024-01-15T02:24:33;2.00;99.90
18880;DHT22;9572;52.378;13.404;2024-01-15T02:27:00;2.00;99.90
18880;DHT22;9572;52.378;13.404;2024-01-15T02:29:27;2.00;99.90
18880;DHT22;9572;52.378;13.404;2024-01-15T02:31:54;1.90;99.90
18880;DHT22;9572;52.378;13.404;2024-01-15T02:34:21;1.90;99.90
18880;DHT22;9572;52.378;13.404;2024-01-15T02:36:47;2.00;99.90
18880;DHT22;9572;52.378;13.404;2024-01-15T02:39:14;1.90;99.90
18880;DHT22;9572;52.378;13.404;2024-01-15T02:41:42;1.90;99.90
18880;DHT22;9572;52.378;13.404;2024-01-15T02:44:09;1.90;99.90
18880;DHT22;9572;52.378;13.404;2024-01-15T02:46:36;1.90;99.90
18880;DHT22;9572;52.378;13.404;2024-01-15T02:49:03;1.90;99.90
18880;DHT22;9572;52.378;13.404;2024-01-15T02:51:30;1.90;99.90
18880;DHT22;9572;52.378;13.404;2024-01-15T02:53:57;1.90;99.90
18880;DHT22;9572;52.378;13.404;2024-01-15T02:56:24;1.90;99.90
18880;DHT22;9572;52.378;13.404;2024-01-15T02:58:53;1.90;99.90
18880;DHT22;9572;52.378;13.404;2024-01-15T03:01:20;1.90;99.90
18880;DHT22;9572;52.378;13.404;2024-01-15T03:03:47;1.90;99.90
18880;DHT22;9572;52.378;13.404;2024-01-15T03:06:14;1.90;99.90
18880;DHT22;9572;52.378;13.404;2024-01-15T03:08:41;1.90;99.90
18880;DHT22;9572;52.378;13.404;2024-01-15T03:11:08;1.90;99.90
18880;DHT22;9572;52.378;13.404;2024-01-15T03:13:36;1.90;99.90
18880;DHT22;9572;52.378;13.404;2024-01-15T03:16:04;1.90;99.90
18880;DHT22;9572;52.378;13.404;2024-01-15T03:18:32;1.90;99.90
18880;DHT22;9572;52.378;13.404;2024-01-15T03:20:58;1.90;99.90
18880;DHT22;9572;52.378;13.404;2024-01-15T03:23:26;1.90;99.90
18880;DHT22;9572;52.378;13.404;2024-01-15T03:25:53;1.90;99.90
18880;DHT22;9572;52.378;13.404;2024-01-15T03:28:20;1.90;99.90
18880;DHT22;9572;52.378;13.404;2024-01-15T03:30:47;1.90;99.90
18880;DHT22;9572;52.378;13.404;2024-01-15T03:33:15;1.90;99.90
18880;DHT22;9572;52.378;13.404;2024-01-15T03:35:42;2.00;99.90
18880;DHT22;9572;52.378;13.404;2024-01-15T03:38:09;2.00;99.90
18880;DHT22;9572;52.378;13.404;2024-01-15T03:40:36;2.00;99.90
18880;DHT22;9572;52.378;13.404;2024-01-15T03:43:03;2.00;99.90
18880;DHT22;9572;52.378;13.404;2024-01-15T03:45:30;1.90;99.90
18880;DHT22;9572;52.378;13.404;2024-01-15T03:47:56;1.90;99.90
18880;DHT22;9572;52.378;13.404;2024-01-15T03:50:25;2.00;99.90
18880;DHT22;9572;52.378;13.404;2024-01-15T03:52:51;2.00;99.90
18880;DHT22;9572;52.378;13.404;2024-01-15T03:55:18;2.00;99.90
18880;DHT22;9572;52.378;13.404;2024-01-15T03:57:45;2.00;99.90
18880;DHT22;9572;52.378;13.404;2024-01-15T04:00:14;2.00;99.90
18880;DHT22;9572;52.378;13.404;2024-01-15T04:02:43;2.00;99.90
18880;DHT22;9572;52.378;13.404;2024-01-15T04:05:10;2.00;99.90
18880;DHT22;9572;52.378;13.404;2024-01-15T04:07:38;2.00;99.90
18880;DHT22;9572;52.378;13.404;2024-01-15T04:10:05;2.00;99.90
18880;DHT22;9572;52.378;13.404;2024-01-15T04:12:33;2.00;99.90
18880;DHT22;9572;52.378;13.404;2024-01-15T04:14:59;2.00;99.90
18880;DHT22;9572;52.378;13.404;2024-01-15T04:17:27;2.00;99.90
18880;DHT22;9572;52.378;13.404;2024-01-15T04:19:54;2.00;99.90
18880;DHT22;9572;52.378;13.404;2024-01-15T04:22:21;2.10;99.90
18880;DHT22;9572;52.378;13.404;2024-01-15T04:24:49;2.00;99.90
18880;DHT22;9572;52.378;13.404;2024-01-15T04:27:16;2.00;99.90
18880;DHT22;9572;52.378;13.404;2024-01-15T04:29:43;2.10;99.90
18880;DHT22;9572;52.378;13.404;2024-01-15T04:32:10;2.10;99.90
18880;DHT22;9572;52.378;13.404;2024-01-15T04:34:37;2.10;99.90
18880;DHT22;9572;52.378;13.404;2024-01-15T04:37:04;2.20;99.90
18880;DHT22;9572;52.378;13.404;2024-01-15T04:39:31;2.20;99.90
18880;DHT22;9572;52.378;13.404;2024-01-15T04:41:59;2.20;99.90
18880;DHT22;9572;52.378;13.404;2024-01-15T04:44:26;2.20;99.90
18880;DHT22;9572;52.378;13.404;2024-01-15T04:46:53;2.10;99.90
18880;DHT22;9572;52.378;13.404;2024-01-15T04:49:20;2.10;99.90
18880;DHT22;9572;52.378;13.404;2024-01-15T04:51:47;2.20;99.90
18880;DHT22;9572;52.378;13.404;2024-01-15T04:54:14;2.20;99.90
18880;DHT22;9572;52.378;13.404;2024-01-15T04:56:43;2.20;99.90
18880;DHT22;9572;52.378;13.404;2024-01-15T04:59:11;2.20;99.90
18880;DHT22;9572;52.378;13.404;2024-01-15T05:01:38;2.20;99.90
18880;DHT22;9572;52.378;13.404;2024-01-15T05:04:05;2.20;99.90
18880;DHT22;9572;52.378;13.404;2024-01-15T05:06:32;2.20;99.90
18880;DHT22;9572;52.378;13.404;2024-01-15T05:08:59;2.20;99.90
18880;DHT22;9572;52.378;13.404;2024-01-15T05:11:26;2.20;99.90
18880;DHT22;9572;52.378;13.404;2024-01-15T05:13:53;2.20;99.90
18880;DHT22;9572;52.378;13.404;2024-01-15T05:16:21;2.20;99.90
18880;DHT22;9572;52.378;13.404;2024-01-15T05:18:48;2.10;99.90
18880;DHT22;9572;52.378;13.404;2024-01-15T05:21:15;2.10;99.90
18880;DHT22;9572;52.378;13.404;2024-01-15T05:23:42;2.10;99.90
18880;DHT22;9572;52.378;13.404;2024-01-15T05:26:09;2.00;99.90
18880;DHT22;9572;52.378;13.404;2024-01-15T05:28:36;2.00;99.90
18880;DHT22;9572;52.378;13.404;2024-01-15T05:31:03;2.00;99.90
18880;DHT22;9572;52.378;13.404;2024-01-15T05:33:31;2.00;99.90
18880;DHT22;9572;52.378;13.404;2024-01-15T05:35:58;2.00;99.90
18880;DHT22;9572;52.378;13.404;2024-01-15T05:38:25;2.10;99.90
18880;DHT22;9572;52.378;13.404;2024-01-15T05:40:53;2.10;99.90
18880;DHT22;9572;52.378;13.404;2024-01-15T05:43:20;2.20;99.90
18880;DHT22;9572;52.378;13.404;2024-01-15T05:45:47;2.20;99.90
18880;DHT22;9572;52.378;13.404;2024-01-15T05:48:13;2.20;99.90
18880;DHT22;9572;52.378;13.404;2024-01-15T05:50:42;2.20;99.90
18880;DHT22;9572;52.378;13.404;2024-01-15T05:53:08;2.30;99.90
18880;DHT22;9572;52.378;13.404;2024-01-15T05:55:36;2.30;99.90
18880;DHT22;9572;52.378;13.404;2024-01-15T05:58:04;2.30;99.90
18880;DHT22;9572;52.378;13.404;2024-01-15T06:00:30;2.30;99.90
18880;DHT22;9572;52.378;13.404;2024-01-15T06:02:58;2.30;99.90
18880;DHT22;9572;52.378;13.404;2024-01-15T06:05:25;2.20;99.90
18880;DHT22;9572;52.378;13.404;2024-01-15T06:07:54;2.10;99.90
18880;DHT22;9572;52.378;13.404;2024-01-15T06:10:20;2.00;99.90
18880;DHT22;9572;52.378;13.404;2024-01-15T06:12:47;2.00;99.90
18880;DHT22;9572;52.378;13.404;2024-01-15T06:15:14;2.00;99.90
18880;DHT22;9572;52.378;13.404;2024-01-15T06:17:41;2.00;99.90
18880;DHT22;9572;52.378;13.404;2024-01-15T06:20:09;2.10;99.90
18880;DHT22;9572;52.378;13.404;2024-01-15T06:22:37;2.10;99.90
18880;DHT22;9572;52.378;13.404;2024-01-15T06:25:07;2.20;99.90
18880;DHT22;9572;52.378;13.404;2024-01-15T06:27:34;2.20;99.90
18880;DHT22;9572;52.378;13.404;2024-01-15T06:30:01;2.20;99.90
18880;DHT22;9572;52.378;13.404;2024-01-15T06:32:28;2.30;99.90
18880;DHT22;9572;52.378;13.404;2024-01-15T06:34:55;2.30;99.90
18880;DHT22;9572;52.378;13.404;2024-01-15T06:37:22;2.30;99.90
18880;DHT22;9572;52.378;13.404;2024-01-15T06:39:49;2.20;99.90
18880;DHT22;9572;52.378;13.404;2024-01-15T06:42:18;2.30;99.90
18880;DHT22;9572;52.378;13.404;2024-01-15T06:44:47;2.30;99.90
18880;DHT22;9572;52.378;13.404;2024-01-15T06:47:14;2.30;99.90
18880;DHT22;9572;52.378;13.404;2024-01-15T06:49:42;2.20;99.90
18880;DHT22;9572;52.378;13.404;2024-01-15T06:52:09;2.20;99.90
18880;DHT22;9572;52.378;13.404;2024-01-15T06:54:37;2.30;99.90
18880;DHT22;9572;52.378;13.404;2024-01-15T06:57:04;2.30;99.90
18880;DHT22;9572;52.378;13.404;2024-01-15T06:59:33;2.30;99.90
18880;DHT22;9572;52.378;13.404;2024-01-15T07:02:00;2.30;99.90
18880;DHT22;9572;52.378;13.404;2024-01-15T07:04:28;2.30;99.90
18880;DHT22;9572;52.378;13.404;2024-01-15T07:06:55;2.30;99.90
18880;DHT22;9572;52.378;13.404;2024-01-15T07:09:22;2.30;99.90
18880;DHT22;9572;52.378;13.404;2024-01-15T07:11:49;2.40;99.90
18880;DHT22;9572;52.378;13.404;2024-01-15T07:14:16;2.40;99.90
18880;DHT22;9572;52.378;13.404;2024-01-15T07:16:44;2.40;99.90
18880;DHT22;9572;52.378;13.404;2024-01-15T07:19:12;2.40;99.90
18880;DHT22;9572;52.378;13.404;2024-01-15T07:21:38;2.40;99.90
18880;DHT22;9572;52.378;13.404;2024-01-15T07:24:08;2.50;99.90
18880;DHT22;9572;52.378;13.404;2024-01-15T07:26:36;2.50;99.90
18880;DHT22;9572;52.378;13.404;2024-01-15T07:29:02;2.50;99.90
18880;DHT22;9572;52.378;13.404;2024-01-15T07:31:29;2.50;99.90
18880;DHT22;9572;52.378;13.404;2024-01-15T07:33:58;2.50;99.90
18880;DHT22;9572;52.378;13.404;2024-01-15T07:36:26;2.50;99.90
18880;DHT22;9572;52.378;13.404;2024-01-15T07:38:54;2.60;99.90
18880;DHT22;9572;52.378;13.404;2024-01-15T07:41:21;2.60;99.90
18880;DHT22;9572;52.378;13.404;2024-01-15T07:43:48;2.60;99.90
18880;DHT22;9572;52.378;13.404;2024-01-15T07:46:15;2.60;99.90
18880;DHT22;9572;52.378;13.404;2024-01-15T07:48:42;2.60;99.90
18880;DHT22;9572;52.378;13.404;2024-01-15T07:51:10;2.60;99.90
18880;DHT22;9572;52.378;13.404;2024-01-15T07:53:37;2.60;99.90
18880;DHT22;9572;52.378;13.404;2024-01-15T07:56:04;2.60;99.90
18880;DHT22;9572;52.378;13.404;2024-01-15T07:58:31;2.60;99.90
18880;DHT22;9572;52.378;13.404;2024-01-15T08:00:58;2.60;99.90
18880;DHT22;9572;52.378;13.404;2024-01-15T08:03:25;2.60;99.90
18880;DHT22;9572;52.378;13.404;2024-01-15T08:05:53;2.60;99.90
18880;DHT22;9572;52.378;13.404;2024-01-15T08:08:22;2.60;99.90
18880;DHT22;9572;52.378;13.404;2024-01-15T08:10:49;2.70;99.90
18880;DHT22;9572;52.378;13.404;2024-01-15T08:13:16;2.70;99.90
18880;DHT22;9572;52.378;13.404;2024-01-15T08:15:43;2.70;99.90
18880;DHT22;9572;52.378;13.404;2024-01-15T08:18:10;2.70;99.90
18880;DHT22;9572;52.378;13.404;2024-01-15T08:20:37;2.70;99.90
18880;DHT22;9572;52.378;13.404;2024-01-15T08:23:04;2.70;99.90
18880;DHT22;9572;52.378;13.404;2024-01-15T08:25:32;2.70;99.90
18880;DHT22;9572;52.378;13.404;2024-01-15T08:27:59;2.60;99.90
18880;DHT22;9572;52.378;13.404;2024-01-15T08:30:26;2.60;99.90
18880;DHT22;9572;52.378;13.404;2024-01-15T08:32:53;2.60;99.90
18880;DHT22;9572;52.378;13.404;2024-01-15T08:35:20;2.60;99.90
18880;DHT22;9572;52.378;13.404;2024-01-15T08:37:48;2.50;99.90
18880;DHT22;9572;52.378;13.404;2024-01-15T08:40:15;2.50;99.90
18880;DHT22;9572;52.378;13.404;2024-01-15T08:42:44;2.50;99.90
18880;DHT22;9572;52.378;13.404;2024-01-15T08:45:11;2.60;99.90
18880;DHT22;9572;52.378;13.404;2024-01-15T08:47:38;2.60;99.90
18880;DHT22;9572;52.378;13.404;2024-01-15T08:50:06;2.70;99.90
18880;DHT22;9572;52.378;13.404;2024-01-15T08:52:35;2.70;99.90
18880;DHT22;9572;52.378;13.404;2024-01-15T08:55:03;2.80;99.90
18880;DHT22;9572;52.378;13.404;2024-01-15T08:57:30;2.80;99.90
18880;DHT22;9572;52.378;13.404;2024-01-15T08:59:58;2.80;99.90
18880;DHT22;9572;52.378;13.404;2024-01-15T09:02:25;2.80;99.90
18880;DHT22;9572;52.378;13.404;2024-01-15T09:04:52;2.80;99.90
18880;DHT22;9572;52.378;13.404;2024-01-15T09:07:19;2.80;99.90
18880;DHT22;9572;52.378;13.404;2024-01-15T09:09:46;2.80;99.90
18880;DHT22;9572;52.378;13.404;2024-01-15T09:12:13;2.80;99.90
18880;DHT22;9572;52.378;13.404;2024-01-15T09:14:41;2.70;99.90
18880;DHT22;9572;52.378;13.404;2024-01-15T09:17:09;2.80;99.90
18880;DHT22;9572;52.378;13.404;2024-01-15T09:19:36;2.80;99.90
18880;DHT22;9572;52.378;13.404;2024-01-15T09:22:04;2.70;99.90
18880;DHT22;9572;52.378;13.404;2024-01-15T09:24:31;2.70;99.90
18880;DHT22;9572;52.378;13.404;2024-01-15T09:26:58;2.70;99.90
18880;DHT22;9572;52.378;13.404;2024-01-15T09:29:25;2.70;99.90
18880;DHT22;9572;52.378;13.404;2024-01-15T09:31:52;2.70;99.90
18880;DHT22;9572;52.378;13.404;2024-01-15T09:34:21;2.70;99.90
18880;DHT22;9572;52.378;13.404;2024-01-15T09:36:48;2.80;99.90
18880;DHT22;9572;52.378;13.404;2024-01-15T09:39:15;2.70;99.90
18880;DHT22;9572;52.378;13.404;2024-01-15T09:41:43;2.80;99.90
18880;DHT22;9572;52.378;13.404;2024-01-15T09:44:10;2.80;99.90
18880;DHT22;9572;52.378;13.404;2024-01-15T09:46:39;2.80;99.90
18880;DHT22;9572;52.378;13.404;2024-01-15T09:49:07;2.90;99.90
18880;DHT22;9572;52.378;13.404;2024-01-15T09:51:35;2.90;99.90
18880;DHT22;9572;52.378;13.404;2024-01-15T09:54:03;2.90;99.90
18880;DHT22;9572;52.378;13.404;2024-01-15T09:56:30;2.90;99.90
18880;DHT22;9572;52.378;13.404;2024-01-15T09:58:57;2.90;99.90
18880;DHT22;9572;52.378;13.404;2024-01-15T10:01:25;3.00;99.90
18880;DHT22;9572;52.378;13.404;2024-01-15T10:03:52;3.00;99.90
18880;DHT22;9572;52.378;13.404;2024-01-15T10:06:21;2.90;99.90
18880;DHT22;9572;52.378;13.404;2024-01-15T10:08:51;2.90;99.90
18880;DHT22;9572;52.378;13.404;2024-01-15T10:11:18;2.90;99.90
18880;DHT22;9572;52.378;13.404;2024-01-15T10:13:45;3.00;99.90
18880;DHT22;9572;52.378;13.404;2024-01-15T10:16:12;3.00;99.90
18880;DHT22;9572;52.378;13.404;2024-01-15T10:18:39;3.00;99.90
18880;DHT22;9572;52.378;13.404;2024-01-15T10:21:06;3.00;99.90
18880;DHT22;9572;52.378;13.404;2024-01-15T10:23:34;3.00;99.90
18880;DHT22;9572;52.378;13.404;2024-01-15T10:26:03;3.00;99.90
18880;DHT22;9572;52.378;13.404;2024-01-15T10:28:30;3.10;99.90
18880;DHT22;9572;52.378;13.404;2024-01-15T10:30:58;3.10;99.90
18880;DHT22;9572;52.378;13.404;2024-01-15T10:33:26;3.10;99.90
18880;DHT22;9572;52.378;13.404;2024-01-15T10:35:54;3.10;99.90
18880;DHT22;9572;52.378;13.404;2024-01-15T10:38:21;3.10;99.90
18880;DHT22;9572;52.378;13.404;2024-01-15T10:40:50;3.10;99.90
18880;DHT22;9572;52.378;13.404;2024-01-15T10:43:19;3.20;99.90
18880;DHT22;9572;52.378;13.404;2024-01-15T10:45:46;3.20;99.90
18880;DHT22;9572;52.378;13.404;2024-01-15T10:48:14;3.20;99.90
18880;DHT22;9572;52.378;13.404;2024-01-15T10:50:43;3.20;99.90
18880;DHT22;9572;52.378;13.404;2024-01-15T10:53:11;3.20;99.90
18880;DHT22;9572;52.378;13.404;2024-01-15T10:55:39;3.20;99.90
18880;DHT22;9572;52.378;13.404;2024-01-15T10:58:08;3.20;99.90
18880;DHT22;9572;52.378;13.404;2024-01-15T11:00:37;3.20;99.90
18880;DHT22;9572;52.378;13.404;2024-01-15T11:03:06;3.20;99.90
18880;DHT22;9572;52.378;13.404;2024-01-15T11:05:34;3.20;99.90
18880;DHT22;9572;52.378;13.404;2024-01-15T11:08:01;3.20;99.90
18880;DHT22;9572;52.378;13.404;2024-01-15T11:10:38;3.30;99.90
18880;DHT22;9572;52.378;13.404;2024-01-15T11:13:05;3.30;99.90
18880;DHT22;9572;52.378;13.404;2024-01-15T11:15:31;3.40;99.90
18880;DHT22;9572;52.378;13.404;2024-01-15T11:18:01;3.50;99.90
18880;DHT22;9572;52.378;13.404;2024-01-15T11:20:31;3.60;99.90
18880;DHT22;9572;52.378;13.404;2024-01-15T11:22:58;3.60;99.90
18880;DHT22;9572;52.378;13.404;2024-01-15T11:25:34;3.70;99.90
18880;DHT22;9572;52.378;13.404;2024-01-15T11:28:03;3.70;99.90
18880;DHT22;9572;52.378;13.404;2024-01-15T11:30:30;3.60;99.90
18880;DHT22;9572;52.378;13.404;2024-01-15T11:33:03;3.40;99.90
18880;DHT22;9572;52.378;13.404;2024-01-15T11:35:47;3.40;99.90
18880;DHT22;9572;52.378;13.404;2024-01-15T11:38:26;3.20;99.90
18880;DHT22;9572;52.378;13.404;2024-01-15T11:40:54;3.10;99.90
18880;DHT22;9572;52.378;13.404;2024-01-15T11:43:21;3.00;99.90
18880;DHT22;9572;52.378;13.404;2024-01-15T11:45:52;2.90;99.90
18880;DHT22;9572;52.378;13.404;2024-01-15T11:48:21;2.90;99.90
18880;DHT22;9572;52.378;13.404;2024-01-15T11:50:50;2.90;99.90
18880;DHT22;9572;52.378;13.404;2024-01-15T11:53:25;2.90;99.90
18880;DHT22;9572;52.378;13.404;2024-01-15T11:55:58;2.90;99.90
18880;DHT22;9572;52.378;13.404;2024-01-15T11:58:25;2.90;99.90
18880;DHT22;9572;52.378;13.404;2024-01-15T12:00:52;2.90;99.90
18880;DHT22;9572;52.378;13.404;2024-01-15T12:03:22;2.80;99.90
18880;DHT22;9572;52.378;13.404;2024-01-15T12:05:49;2.80;99.90
18880;DHT22;9572;52.378;13.404;2024-01-15T12:08:21;2.80;99.90
18880;DHT22;9572;52.378;13.404;2024-01-15T12:10:48;2.80;99.90
18880;DHT22;9572;52.378;13.404;2024-01-15T12:13:16;2.70;99.90
18880;DHT22;9572;52.378;13.404;2024-01-15T12:15:45;2.70;99.90
18880;DHT22;9572;52.378;13.404;2024-01-15T12:18:13;2.80;99.90
18880;DHT22;9572;52.378;13.404;2024-01-15T12:20:42;2.80;99.90
18880;DHT22;9572;52.378;13.404;2024-01-15T12:23:09;2.80;99.90
18880;DHT22;9572;52.378;13.404;2024-01-15T12:25:36;2.80;99.90
18880;DHT22;9572;52.378;13.404;2024-01-15T12:28:04;2.80;99.90
18880;DHT22;9572;52.378;13.404;2024-01-15T12:30:34;2.80;99.90
18880;DHT22;9572;52.378;13.404;2024-01-15T12:33:03;2.80;99.90
18880;DHT22;9572;52.378;13.404;2024-01-15T12:35:30;2.80;99.90
18880;DHT22;9572;52.378;13.404;2024-01-15T12:37:59;2.80;99.90
18880;DHT22;9572;52.378;13.404;2024-01-15T12:40:28;2.80;99.90
18880;DHT22;9572;52.378;13.404;2024-01-15T12:42:55;2.90;99.90
18880;DHT22;9572;52.378;13.404;2024-01-15T12:45:22;2.90;99.90
18880;DHT22;9572;52.378;13.404;2024-01-15T12:47:49;2.90;99.90
18880;DHT22;9572;52.378;13.404;2024-01-15T12:50:16;2.90;99.90
18880;DHT22;9572;52.378;13.404;2024-01-15T12:52:43;2.80;99.90
18880;DHT22;9572;52.378;13.404;2024-01-15T12:55:12;2.80;99.90
18880;DHT22;9572;52.378;13.404;2024-01-15T12:57:40;2.80;99.90
18880;DHT22;9572;52.378;13.404;2024-01-15T13:00:07;2.70;99.90
18880;DHT22;9572;52.378;13.404;2024-01-15T13:02:37;2.60;99.90
18880;DHT22;9572;52.378;13.404;2024-01-15T13:05:05;2.50;99.90
18880;DHT22;9572;52.378;13.404;2024-01-15T13:07:32;2.50;99.90
18880;DHT22;9572;52.378;13.404;2024-01-15T13:09:59;2.50;99.90
18880;DHT22;9572;52.378;13.404;2024-01-15T13:12:27;2.50;99.90
18880;DHT22;9572;52.378;13.404;2024-01-15T13:14:54;2.50;99.90
18880;DHT22;9572;52.378;13.404;2024-01-15T13:17:21;2.50;99.90
18880;DHT22;9572;52.378;13.404;2024-01-15T13:19:48;2.50;99.90
18880;DHT22;9572;52.378;13.404;2024-01-15T13:22:15;2.50;99.90
18880;DHT22;9572;52.378;13.404;2024-01-15T13:24:42;2.50;99.90
18880;DHT22;9572;52.378;13.404;2024-01-15T13:27:09;2.50;99.90
18880;DHT22;9572;52.378;13.404;2024-01-15T13:29:38;2.50;99.90
18880;DHT22;9572;52.378;13.404;2024-01-15T13:32:05;2.50;99.90
18880;DHT22;9572;52.378;13.404;2024-01-15T13:34:32;2.50;99.90
18880;DHT22;9572;52.378;13.404;2024-01-15T13:36:59;2.60;99.90
18880;DHT22;9572;52.378;13.404;2024-01-15T13:39:26;2.50;99.90
18880;DHT22;9572;52.378;13.404;2024-01-15T13:41:53;2.50;99.90
18880;DHT22;9572;52.378;13.404;2024-01-15T13:44:20;2.50;99.90
18880;DHT22;9572;52.378;13.404;2024-01-15T13:46:48;2.50;99.90
18880;DHT22;9572;52.378;13.404;2024-01-15T13:49:15;2.60;99.90
18880;DHT22;9572;52.378;13.404;2024-01-15T13:51:42;2.60;99.90
18880;DHT22;9572;52.378;13.404;2024-01-15T13:54:08;2.50;99.90
18880;DHT22;9572;52.378;13.404;2024-01-15T13:56:35;2.50;99.90
18880;DHT22;9572;52.378;13.404;2024-01-15T13:59:02;2.50;99.90
18880;DHT22;9572;52.378;13.404;2024-01-15T14:01:31;2.50;99.90
18880;DHT22;9572;52.378;13.404;2024-01-15T14:04:00;2.50;99.90
18880;DHT22;9572;52.378;13.404;2024-01-15T14:06:27;2.50;99.90
18880;DHT22;9572;52.378;13.404;2024-01-15T14:08:54;2.50;99.90
18880;DHT22;9572;52.378;13.404;2024-01-15T14:11:21;2.50;99.90
18880;DHT22;9572;52.378;13.404;2024-01-15T14:13:48;2.50;99.90
18880;DHT22;9572;52.378;13.404;2024-01-15T14:16:15;2.50;99.90
18880;DHT22;9572;52.378;13.404;2024-01-15T14:18:42;2.50;99.90
18880;DHT22;9572;52.378;13.404;2024-01-15T14:21:10;2.50;99.90
18880;DHT22;9572;52.378;13.404;2024-01-15T14:23:37;2.50;99.90
18880;DHT22;9572;52.378;13.404;2024-01-15T14:26:04;2.40;99.90
18880;DHT22;9572;52.378;13.404;2024-01-15T14:28:31;2.40;99.90
18880;DHT22;9572;52.378;13.404;2024-01-15T14:30:58;2.40;99.90
18880;DHT22;9572;52.378;13.404;2024-01-15T14:33:25;2.40;99.90
18880;DHT22;9572;52.378;13.404;2024-01-15T14:35:52;2.30;99.90
18880;DHT22;9572;52.378;13.404;2024-01-15T14:38:20;2.30;99.90
18880;DHT22;9572;52.378;13.404;2024-01-15T14:40:48;2.30;99.90
18880;DHT22;9572;52.378;13.404;2024-01-15T14:43:15;2.20;99.90
18880;DHT22;9572;52.378;13.404;2024-01-15T14:45:41;2.20;99.90
18880;DHT22;9572;52.378;13.404;2024-01-15T14:48:09;2.20;99.90
18880;DHT22;9572;52.378;13.404;2024-01-15T14:50:36;2.30;99.90
18880;DHT22;9572;52.378;13.404;2024-01-15T14:53:03;2.20;99.90
18880;DHT22;9572;52.378;13.404;2024-01-15T14:55:31;2.30;99.90
18880;DHT22;9572;52.378;13.404;2024-01-15T14:57:58;2.30;99.90
18880;DHT22;9572;52.378;13.404;2024-01-15T15:00:25;2.30;99.90
18880;DHT22;9572;52.378;13.404;2024-01-15T15:02:52;2.30;99.90
18880;DHT22;9572;52.378;13.404;2024-01-15T15:05:19;2.30;99.90
18880;DHT22;9572;52.378;13.404;2024-01-15T15:07:46;2.30;99.90
18880;DHT22;9572;52.378;13.404;2024-01-15T15:10:13;2.40;99.90
18880;DHT22;9572;52.378;13.404;2024-01-15T15:12:42;2.40;99.90
18880;DHT22;9572;52.378;13.404;2024-01-15T15:15:09;2.30;99.90
18880;DHT22;9572;52.378;13.404;2024-01-15T15:17:39;2.40;99.90
18880;DHT22;9572;52.378;13.404;2024-01-15T15:20:06;2.30;99.90
18880;DHT22;9572;52.378;13.404;2024-01-15T15:22:34;2.40;99.90
18880;DHT22;9572;52.378;13.404;2024-01-15T15:25:01;2.40;99.90
18880;DHT22;9572;52.378;13.404;2024-01-15T15:27:27;2.40;99.90
18880;DHT22;9572;52.378;13.404;2024-01-15T15:29:56;2.40;99.90
18880;DHT22;9572;52.378;13.404;2024-01-15T15:32:23;2.30;99.90
18880;DHT22;9572;52.378;13.404;2024-01-15T15:34:50;2.30;99.90
18880;DHT22;9572;52.378;13.404;2024-01-15T15:37:17;2.40;99.90
18880;DHT22;9572;52.378;13.404;2024-01-15T15:39:44;2.30;99.90
18880;DHT22;9572;52.378;13.404;2024-01-15T15:42:10;2.30;99.90
18880;DHT22;9572;52.378;13.404;2024-01-15T15:44:39;2.30;99.90
18880;DHT22;9572;52.378;13.404;2024-01-15T15:47:12;2.30;99.90